Time;durP1;ratioP1;P1;durP2;ratioP2;P2;SDS_P1;SDS_P2;PMS_P1;PMS_P2;Temp;Humidity;BMP_temperature;BMP_pressure;BME280_temperature;BME280_humidity;BME280_pressure;Samples;Min_cycle;Max_cycle;Signal;HPM_P1;HPM_P2
2022/01/17 00:01:40;;;;;;;12.40;7.28;;;;;;;-0.82;61.97;100117.46;1683141;83;21192;-60
2022/01/17 00:04:10;;;;;;;13.90;6.75;;;;;;;-0.78;61.67;100118.19;1711598;83;21474;-62
2022/01/17 00:06:39;;;;;;;19.48;6.53;;;;;;;-0.75;61.59;100111.62;1682949;84;21163;-61
2022/01/17 00:09:07;;;;;;;14.60;6.90;;;;;;;-0.75;61.52;100110.33;1666406;84;21039;-59
2022/01/17 00:11:35;;;;;;;12.00;6.40;;;;;;;-0.76;61.34;100094.42;1673956;83;21418;-62
2022/01/17 00:14:01;;;;;;;15.63;7.47;;;;;;;-0.75;61.36;100102.11;1719304;81;21102;-61
2022/01/17 00:16:39;;;;;;;12.90;7.25;;;;;;;-0.73;61.27;100087.84;1736112;81;21173;-62
2022/01/17 00:21:42;;;;;;;14.43;7.03;;;;;;;-0.70;61.07;100081.27;1729308;80;21102;-60
2022/01/17 00:24:09;;;;;;;13.28;7.33;;;;;;;-0.68;61.04;100077.34;1735683;80;21055;-60
2022/01/17 00:26:36;;;;;;;14.73;6.12;;;;;;;-0.68;60.99;100075.59;1738393;80;21046;-60
2022/01/17 00:29:02;;;;;;;12.75;6.67;;;;;;;-0.67;60.91;100063.08;1727914;82;21045;-60
2022/01/17 00:31:29;;;;;;;13.18;8.03;;;;;;;-0.65;60.90;100059.14;1735026;81;22380;-60
2022/01/17 00:33:55;;;;;;;12.18;6.78;;;;;;;-0.64;60.81;100053.92;1733384;81;21039;-60
2022/01/17 00:36:22;;;;;;;15.13;7.15;;;;;;;-0.60;60.64;100049.47;1698963;83;21710;-59
2022/01/17 00:38:48;;;;;;;17.92;8.03;;;;;;;-0.59;60.64;100041.66;1677942;84;21485;-59
2022/01/17 00:41:15;;;;;;;15.88;6.95;;;;;;;-0.53;60.29;100031.97;1670938;84;21082;-60
2022/01/17 00:43:41;;;;;;;16.75;6.80;;;;;;;-0.50;60.33;100037.86;1705331;83;21160;-59
2022/01/17 00:46:09;;;;;;;13.22;6.87;;;;;;;-0.50;60.33;100037.86;1674905;83;21083;-60
2022/01/17 00:48:35;;;;;;;17.23;6.92;;;;;;;-0.43;60.26;100033.29;1670499;84;21066;-60
2022/01/17 00:51:02;;;;;;;11.80;7.00;;;;;;;-0.34;59.77;100031.61;1700386;83;21525;-59
2022/01/17 00:53:29;;;;;;;12.25;6.30;;;;;;;-0.34;59.77;100031.61;1696981;82;21064;-59
2022/01/17 00:55:55;;;;;;;16.65;6.97;;;;;;;-0.30;59.58;100023.27;1699223;82;21121;-59
2022/01/17 00:58:21;;;;;;;12.00;6.55;;;;;;;-0.30;59.58;100023.27;1699607;82;21771;-59
2022/01/17 01:00:48;;;;;;;16.30;8.50;;;;;;;-0.29;59.46;100008.98;1699707;82;21031;-59
2022/01/17 01:03:14;;;;;;;15.93;7.33;;;;;;;-0.29;59.46;100008.98;1665013;83;21052;-59
2022/01/17 01:05:41;;;;;;;12.93;7.22;;;;;;;-0.27;59.20;100006.34;1691437;83;21091;-60
2022/01/17 01:08:07;;;;;;;12.50;6.22;;;;;;;-0.20;59.18;99990.52;1698778;82;21109;-60
2022/01/17 01:10:34;;;;;;;11.40;6.80;;;;;;;-0.20;59.18;99990.52;1675774;83;21269;-60
2022/01/17 01:13:01;;;;;;;15.35;7.58;;;;;;;-0.13;58.89;99988.98;1685632;83;21010;-60
2022/01/17 01:18:19;;;;;;;11.45;6.15;;;;;;;-0.08;58.70;99980.58;1693806;84;21117;-59
2022/01/17 01:28:41;;;;;;;11.50;6.53;;;;;;;0.02;58.11;99967.63;1692344;84;21815;-60
2022/01/17 01:31:20;;;;;;;14.78;7.20;;;;;;;0.04;58.14;99971.45;1694627;84;21076;-60
2022/01/17 01:33:42;;;;;;;12.73;6.22;;;;;;;0.05;57.88;99960.17;1689238;82;21643;-61
2022/01/17 01:36:13;;;;;;;12.23;6.95;;;;;;;0.09;57.48;99952.23;1686416;82;21608;-60
2022/01/17 01:38:36;;;;;;;14.25;6.37;;;;;;;0.14;57.22;99948.15;1689845;83;21097;-60
2022/01/17 01:41:03;;;;;;;16.02;7.65;;;;;;;0.13;57.48;99947.28;1694675;84;21046;-60
2022/01/17 01:43:29;;;;;;;12.03;6.62;;;;;;;0.18;57.08;99944.51;1691826;82;21797;-61
2022/01/17 01:45:59;;;;;;;15.00;7.40;;;;;;;0.23;57.00;99932.67;1692098;84;21095;-58
2022/01/17 01:48:24;;;;;;;14.85;6.80;;;;;;;0.28;56.92;99934.13;1691244;84;21021;-59
2022/01/17 01:50:50;;;;;;;13.83;7.30;;;;;;;0.32;56.48;99927.92;1696501;82;21079;-60
2022/01/17 01:53:17;;;;;;;13.90;6.50;;;;;;;0.35;56.61;99924.34;1692525;82;21516;-60
2022/01/17 01:55:44;;;;;;;15.03;6.65;;;;;;;0.36;56.47;99915.22;1684885;83;21057;-60
2022/01/17 01:58:10;;;;;;;16.10;7.17;;;;;;;0.37;56.43;99908.31;1665768;83;21128;-60
2022/01/17 02:00:37;;;;;;;13.72;7.60;;;;;;;0.38;56.32;99916.45;1682597;83;21146;-60
2022/01/17 02:03:05;;;;;;;10.70;6.03;;;;;;;0.41;56.38;99902.54;1680173;83;21056;-60
2022/01/17 02:05:31;;;;;;;15.58;7.50;;;;;;;0.41;56.31;99911.14;1685958;83;21027;-59
2022/01/17 02:07:58;;;;;;;14.78;7.33;;;;;;;0.40;56.70;99908.61;1685584;83;21098;-60
2022/01/17 02:10:25;;;;;;;13.72;6.97;;;;;;;0.39;57.32;99903.91;1703593;82;21075;-60
2022/01/17 02:12:51;;;;;;;12.43;6.85;;;;;;;0.38;58.32;99889.27;1701123;83;21154;-60
2022/01/17 02:15:18;;;;;;;16.95;7.47;;;;;;;0.38;58.32;99889.27;1700350;83;22274;-59
2022/01/17 02:17:54;;;;;;;14.15;6.67;;;;;;;0.36;59.37;99884.16;1701010;83;21064;-60
2022/01/17 02:20:20;;;;;;;18.35;7.53;;;;;;;0.39;60.14;99883.20;1672287;83;21070;-60
2022/01/17 02:22:46;;;;;;;17.35;7.08;;;;;;;0.36;60.80;99870.39;1698543;83;21122;-60
2022/01/17 02:25:12;;;;;;;18.60;7.78;;;;;;;0.33;61.56;99849.82;1667122;84;21090;-60
2022/01/17 02:27:39;;;;;;;14.07;6.97;;;;;;;0.34;62.45;99843.75;1700072;83;21127;-60
2022/01/17 02:30:06;;;;;;;10.45;6.40;;;;;;;0.31;63.30;99830.48;1703675;82;22220;-60
2022/01/17 02:32:33;;;;;;;17.35;8.68;;;;;;;0.30;63.63;99817.17;1736204;81;21088;-60
2022/01/17 02:35:15;;;;;;;18.02;6.87;;;;;;;0.26;63.93;99806.56;1733786;80;21241;-60
2022/01/17 02:37:42;;;;;;;13.98;7.62;;;;;;;0.22;64.42;99786.93;1719264;81;21096;-58
2022/01/17 02:40:10;;;;;;;14.95;8.05;;;;;;;0.22;64.77;99771.84;1722062;81;21159;-58
2022/01/17 02:42:37;;;;;;;19.27;7.97;;;;;;;0.19;64.89;99757.31;1699789;83;21059;-58
2022/01/17 02:45:20;;;;;;;20.35;8.55;;;;;;;0.20;64.97;99762.02;1737515;80;21001;-58
2022/01/17 02:47:40;;;;;;;24.25;8.55;;;;;;;0.21;65.10;99743.02;1735772;80;21187;-58
2022/01/17 02:50:08;;;;;;;14.35;7.33;;;;;;;0.21;65.12;99735.25;1734490;81;21730;-59
2022/01/17 02:52:35;;;;;;;19.62;7.53;;;;;;;0.23;65.00;99749.78;1732219;81;21018;-59
2022/01/17 02:55:01;;;;;;;17.52;8.93;;;;;;;0.18;65.09;99770.72;1735794;81;21525;-59
2022/01/17 02:57:29;;;;;;;14.98;8.00;;;;;;;0.19;65.10;99761.20;1721867;81;21091;-59
2022/01/17 02:59:56;;;;;;;21.07;8.23;;;;;;;0.21;65.09;99781.36;1700139;82;21202;-59
2022/01/17 03:02:22;;;;;;;13.68;7.35;;;;;;;0.19;65.28;99771.55;1736068;80;21022;-59
2022/01/17 03:04:48;;;;;;;13.35;7.72;;;;;;;0.20;65.51;99733.56;1697261;83;21106;-59
2022/01/17 03:07:16;;;;;;;17.32;7.42;;;;;;;0.19;65.44;99712.03;1738930;81;21071;-59
2022/01/17 03:10:01;;;;;;;14.93;6.67;;;;;;;0.21;65.41;99710.67;1736486;81;21269;-59
2022/01/17 03:12:13;;;;;;;15.05;7.70;;;;;;;0.24;65.24;99722.17;1689901;82;21217;-59
2022/01/17 03:14:41;;;;;;;14.20;6.28;;;;;;;0.23;65.12;99707.08;1696961;83;21098;-58
2022/01/17 03:17:09;;;;;;;13.83;7.08;;;;;;;0.25;65.01;99701.38;1693475;83;21165;-59
2022/01/17 03:19:35;;;;;;;18.20;7.60;;;;;;;0.28;64.85;99687.46;1700253;83;21401;-59
2022/01/17 03:22:03;;;;;;;12.98;7.12;;;;;;;0.28;64.85;99687.46;1670002;83;21161;-59
2022/01/17 03:24:29;;;;;;;14.93;7.75;;;;;;;0.32;64.75;99699.33;1704631;82;21159;-59
2022/01/17 03:26:56;;;;;;;15.40;7.22;;;;;;;0.29;64.79;99688.69;1704932;83;21067;-61
2022/01/17 03:29:22;;;;;;;15.68;7.08;;;;;;;0.30;64.91;99692.95;1704270;82;21051;-59
2022/01/17 03:31:48;;;;;;;16.05;7.22;;;;;;;0.36;64.78;99677.11;1702008;83;21122;-59
2022/01/17 03:34:15;;;;;;;16.23;8.10;;;;;;;0.39;64.60;99673.55;1675017;83;21086;-59
2022/01/17 03:36:44;;;;;;;10.70;5.25;;;;;;;0.42;64.54;99675.13;1695704;82;21059;-59
2022/01/17 03:39:10;;;;;;;12.45;7.00;;;;;;;0.44;64.55;99662.51;1673281;83;21058;-61
2022/01/17 03:41:37;;;;;;;16.10;7.03;;;;;;;0.44;64.19;99666.83;1695787;82;21115;-60
2022/01/17 03:44:06;;;;;;;12.28;7.42;;;;;;;0.43;64.22;99656.94;1673565;83;21055;-60
2022/01/17 03:46:32;;;;;;;13.48;6.58;;;;;;;0.42;64.24;99647.52;1699432;83;21013;-60
2022/01/17 03:48:59;;;;;;;11.65;6.17;;;;;;;0.49;64.14;99629.93;1722965;82;21197;-60
2022/01/17 03:51:25;;;;;;;13.15;6.85;;;;;;;0.49;64.14;99629.93;1739944;80;21044;-60
2022/01/17 03:53:52;;;;;;;15.98;7.03;;;;;;;0.51;63.61;99637.98;1737775;81;21010;-60
2022/01/17 03:56:18;;;;;;;14.25;6.17;;;;;;;0.54;63.48;99640.89;1736258;80;21335;-60
2022/01/17 03:58:46;;;;;;;21.70;7.87;;;;;;;0.58;63.31;99637.69;1733666;80;21759;-60
2022/01/17 04:01:13;;;;;;;18.17;7.75;;;;;;;0.59;62.96;99620.78;1666800;84;21027;-60
2022/01/17 04:03:40;;;;;;;13.03;6.62;;;;;;;0.66;62.34;99601.89;1718072;81;21584;-61
2022/01/17 04:06:06;;;;;;;10.93;5.55;;;;;;;0.66;62.34;99601.89;1731046;80;21144;-60
2022/01/17 04:08:34;;;;;;;16.97;7.05;;;;;;;0.70;61.94;99595.15;1734268;81;21025;-60
2022/01/17 04:11:00;;;;;;;11.15;6.22;;;;;;;0.71;61.90;99583.89;1718519;80;21089;-61
2022/01/17 04:13:27;;;;;;;9.88;5.37;;;;;;;0.73;61.55;99584.64;1735041;80;21132;-60
2022/01/17 04:15:53;;;;;;;13.03;6.53;;;;;;;0.78;61.29;99585.70;1730501;80;21047;-60
2022/01/17 04:18:23;;;;;;;15.35;6.90;;;;;;;0.80;60.82;99577.39;1734850;81;21556;-60
2022/01/17 04:20:48;;;;;;;12.07;6.25;;;;;;;0.83;60.69;99573.81;1698806;82;21718;-59
2022/01/17 04:23:15;;;;;;;12.70;6.60;;;;;;;0.87;60.40;99564.48;1695659;82;21093;-59
2022/01/17 04:25:42;;;;;;;11.45;6.60;;;;;;;0.93;60.03;99560.75;1674059;83;21102;-58
2022/01/17 04:28:09;;;;;;;11.25;6.15;;;;;;;0.98;59.81;99569.11;1718261;81;21063;-59
2022/01/17 04:30:37;;;;;;;15.78;6.85;;;;;;;1.02;58.88;99573.66;1718604;82;21599;-59
2022/01/17 04:33:05;;;;;;;11.55;6.05;;;;;;;1.02;58.88;99573.66;1719590;81;21102;-59
2022/01/17 04:35:32;;;;;;;14.43;7.12;;;;;;;1.04;59.04;99573.11;1723440;80;21094;-59
2022/01/17 04:38:03;;;;;;;17.67;6.80;;;;;;;1.07;58.78;99558.23;1728921;80;21189;-59
2022/01/17 04:40:35;;;;;;;14.90;7.37;;;;;;;1.11;58.48;99538.20;1727877;80;21086;-59
2022/01/17 04:42:59;;;;;;;14.23;7.37;;;;;;;1.11;58.30;99522.19;1729973;80;21596;-59
2022/01/17 04:45:27;;;;;;;15.50;7.12;;;;;;;1.14;58.35;99532.00;1691395;82;21494;-59
2022/01/17 04:47:54;;;;;;;11.65;5.78;;;;;;;1.20;58.38;99531.67;1693134;82;21074;-59
2022/01/17 04:50:23;;;;;;;13.13;5.92;;;;;;;1.23;57.99;99532.81;1690891;82;21218;-60
2022/01/17 04:52:50;;;;;;;11.45;6.45;;;;;;;1.22;57.92;99542.32;1727250;80;21549;-59
2022/01/17 04:55:18;;;;;;;10.88;5.30;;;;;;;1.20;58.02;99548.05;1731602;81;21122;-59
2022/01/17 04:57:45;;;;;;;13.45;6.50;;;;;;;1.21;59.53;99549.73;1721131;80;21077;-59
2022/01/17 05:00:14;;;;;;;16.07;7.33;;;;;;;1.22;60.32;99540.20;1732043;80;21548;-59
2022/01/17 05:02:42;;;;;;;13.50;6.62;;;;;;;1.19;61.29;99539.06;1731667;80;21097;-59
2022/01/17 05:05:10;;;;;;;12.85;6.60;;;;;;;1.08;64.88;99523.64;1729397;81;21094;-58
2022/01/17 05:07:39;;;;;;;12.78;7.25;;;;;;;1.02;66.09;99526.56;1731923;80;21070;-58
2022/01/17 05:10:11;;;;;;;14.43;6.60;;;;;;;0.96;66.56;99518.28;1721080;81;21035;-58
2022/01/17 05:12:37;;;;;;;17.20;7.33;;;;;;;0.92;67.28;99516.33;1704780;82;21058;-59
2022/01/17 05:15:10;;;;;;;10.48;5.95;;;;;;;0.84;69.71;99515.46;1744633;81;21485;-59
2022/01/17 05:17:42;;;;;;;13.90;6.47;;;;;;;0.78;71.55;99498.12;1744422;81;21086;-59
2022/01/17 05:20:06;;;;;;;11.48;6.65;;;;;;;0.72;72.63;99477.25;1703864;82;21054;-57
2022/01/17 05:22:35;;;;;;;15.05;6.65;;;;;;;0.69;71.84;99478.70;1740492;80;21071;-59
2022/01/17 05:25:05;;;;;;;13.90;6.70;;;;;;;0.68;71.91;99471.88;1744608;80;21530;-58
2022/01/17 05:27:31;;;;;;;12.47;6.08;;;;;;;0.64;71.91;99463.44;1741609;80;21997;-59
2022/01/17 05:29:58;;;;;;;12.25;6.37;;;;;;;0.63;72.45;99464.35;1737531;80;21074;-59
2022/01/17 05:32:24;;;;;;;12.28;5.70;;;;;;;0.63;72.45;99464.35;1745138;80;21467;-59
2022/01/17 05:34:51;;;;;;;10.35;6.50;;;;;;;0.64;72.65;99439.28;1720108;80;21100;-59
2022/01/17 05:37:17;;;;;;;12.47;6.40;;;;;;;0.66;73.06;99454.30;1740039;81;21581;-60
2022/01/17 05:39:43;;;;;;;14.28;7.50;;;;;;;0.67;72.74;99444.30;1743492;81;21147;-60
2022/01/17 05:42:14;;;;;;;15.80;7.25;;;;;;;0.70;72.64;99446.73;1737347;80;21094;-60
2022/01/17 05:44:38;;;;;;;12.23;6.58;;;;;;;0.72;72.34;99451.36;1741858;80;21023;-60
2022/01/17 05:47:06;;;;;;;14.63;6.65;;;;;;;0.77;71.93;99458.41;1737812;80;21144;-60
2022/01/17 05:49:33;;;;;;;13.15;7.60;;;;;;;0.79;71.21;99462.22;1734722;80;21058;-65
2022/01/17 05:51:59;;;;;;;12.37;6.12;;;;;;;0.79;71.41;99454.45;1736759;80;22840;-59
2022/01/17 05:54:26;;;;;;;14.23;7.25;;;;;;;0.81;71.50;99440.95;1738100;80;21086;-59
2022/01/17 05:56:52;;;;;;;11.35;6.42;;;;;;;0.86;70.94;99441.09;1744699;80;21101;-60
2022/01/17 05:59:18;;;;;;;15.13;8.58;;;;;;;0.87;70.67;99440.62;1737537;80;21048;-62
2022/01/17 06:01:45;;;;;;;12.07;6.60;;;;;;;0.89;70.92;99442.66;1725632;81;21039;-60
2022/01/17 06:04:11;;;;;;;15.43;6.80;;;;;;;0.92;70.98;99455.02;1739736;80;21163;-60
2022/01/17 06:06:37;;;;;;;12.88;6.70;;;;;;;0.90;71.11;99443.88;1737855;80;21529;-60
2022/01/17 06:09:04;;;;;;;14.63;7.17;;;;;;;0.92;71.99;99423.94;1726751;81;21093;-59
2022/01/17 06:11:33;;;;;;;13.88;6.92;;;;;;;0.94;71.91;99425.11;1717152;80;21052;-60
2022/01/17 06:13:59;;;;;;;11.95;6.50;;;;;;;0.93;72.65;99427.34;1743738;80;21015;-62
2022/01/17 06:16:26;;;;;;;14.38;6.90;;;;;;;0.93;72.98;99411.34;1739811;80;21134;-62
2022/01/17 06:18:54;;;;;;;17.50;7.70;;;;;;;0.93;72.71;99410.04;1703358;82;21567;-62
2022/01/17 06:21:20;;;;;;;13.05;6.60;;;;;;;0.97;72.75;99416.35;1696030;83;21024;-62
2022/01/17 06:23:47;;;;;;;11.70;6.35;;;;;;;0.99;72.15;99419.69;1697926;82;21532;-61
2022/01/17 06:26:13;;;;;;;16.45;8.20;;;;;;;0.97;71.41;99407.28;1728331;80;21054;-62
2022/01/17 06:28:40;;;;;;;12.20;6.22;;;;;;;0.97;71.25;99391.74;1743072;81;21136;-59
2022/01/17 06:31:06;;;;;;;12.18;6.80;;;;;;;1.02;71.23;99394.91;1739755;80;21076;-59
2022/01/17 06:33:33;;;;;;;15.48;7.25;;;;;;;1.06;70.75;99389.47;1726220;82;21590;-60
2022/01/17 06:35:59;;;;;;;14.75;7.33;;;;;;;1.09;70.25;99395.78;1748293;81;21098;-60
2022/01/17 06:38:26;;;;;;;12.07;7.10;;;;;;;1.10;69.76;99374.11;1744094;80;21569;-61
2022/01/17 06:40:52;;;;;;;19.77;7.70;;;;;;;1.17;69.62;99366.83;1716113;81;21075;-59
2022/01/17 06:43:18;;;;;;;14.03;6.97;;;;;;;1.19;69.49;99361.56;1740059;80;21678;-60
2022/01/17 06:45:45;;;;;;;13.03;7.20;;;;;;;1.25;69.07;99353.44;1744242;80;21571;-61
2022/01/17 06:48:12;;;;;;;15.08;7.40;;;;;;;1.26;68.97;99333.92;1729875;80;21065;-61
2022/01/17 06:50:39;;;;;;;12.63;7.12;;;;;;;1.29;68.88;99334.19;1741001;80;21508;-61
2022/01/17 06:53:05;;;;;;;14.58;6.58;;;;;;;1.30;68.69;99314.66;1740116;80;21113;-61
2022/01/17 06:55:31;;;;;;;22.77;6.28;;;;;;;1.34;68.59;99306.70;1701968;82;21042;-62
2022/01/17 06:57:58;;;;;;;17.07;7.15;;;;;;;1.37;68.50;99304.77;1696600;82;21558;-61
2022/01/17 07:00:24;;;;;;;20.77;8.70;;;;;;;1.39;68.34;99284.76;1737065;81;21133;-61
2022/01/17 07:02:50;;;;;;;14.65;6.92;;;;;;;1.41;68.30;99285.53;1732326;80;21552;-62
2022/01/17 07:05:17;;;;;;;11.70;6.97;;;;;;;1.42;68.10;99321.34;1718889;82;21130;-59
2022/01/17 07:07:44;;;;;;;13.60;6.67;;;;;;;1.43;68.09;99367.92;1741918;80;21024;-58
2022/01/17 07:10:11;;;;;;;13.13;7.53;;;;;;;1.44;67.86;99385.13;1702557;82;21868;-58
2022/01/17 07:12:37;;;;;;;13.15;7.70;;;;;;;1.47;67.97;99390.13;1741602;80;20965;-58
2022/01/17 07:15:06;;;;;;;15.90;8.33;;;;;;;1.53;67.84;99401.92;1731694;80;21047;-58
2022/01/17 07:17:32;;;;;;;13.50;7.30;;;;;;;1.59;67.62;99381.27;1742114;80;21131;-58
2022/01/17 07:19:58;;;;;;;14.33;7.78;;;;;;;1.64;67.49;99361.09;1747641;80;21047;-60
2022/01/17 07:22:27;;;;;;;12.90;7.37;;;;;;;1.70;67.34;99348.20;1745448;81;21015;-59
2022/01/17 07:24:55;;;;;;;13.48;6.67;;;;;;;1.72;67.09;99323.87;1747901;80;20952;-59
2022/01/17 07:27:21;;;;;;;14.87;8.13;;;;;;;1.75;67.00;99300.78;1747483;81;21038;-59
2022/01/17 07:29:47;;;;;;;13.58;8.18;;;;;;;1.79;66.91;99260.78;1702651;82;21117;-59
2022/01/17 07:32:13;;;;;;;16.00;8.38;;;;;;;1.82;66.74;99245.86;1704937;82;21066;-59
2022/01/17 07:34:41;;;;;;;15.20;8.30;;;;;;;1.82;66.71;99212.61;1686778;83;21056;-59
2022/01/17 07:37:07;;;;;;;14.98;7.90;;;;;;;1.84;66.68;99243.17;1666363;84;21564;-59
2022/01/17 07:39:36;;;;;;;16.97;7.87;;;;;;;1.88;66.37;99249.00;1690723;84;21016;-59
2022/01/17 07:42:03;;;;;;;14.00;8.43;;;;;;;1.89;66.33;99246.31;1680506;84;21890;-59
2022/01/17 07:44:34;;;;;;;19.77;7.60;;;;;;;1.94;66.33;99240.37;1688451;84;21035;-59
2022/01/17 07:47:02;;;;;;;17.23;9.68;;;;;;;1.98;66.29;99252.20;1667274;84;20960;-58
2022/01/17 07:49:30;;;;;;;20.95;8.60;;;;;;;2.04;66.16;99240.16;1658452;82;21119;-58
2022/01/17 07:52:03;;;;;;;15.28;9.93;;;;;;;2.10;66.03;99264.05;1684423;82;21098;-58
2022/01/17 07:54:32;;;;;;;16.50;9.15;;;;;;;2.15;65.96;99287.95;1682554;83;21092;-59
2022/01/17 07:56:59;;;;;;;15.30;8.43;;;;;;;2.18;66.04;99284.69;1690575;82;21063;-59
2022/01/17 07:59:26;;;;;;;14.58;9.05;;;;;;;2.28;65.91;99261.59;1666174;84;21473;-59
2022/01/17 08:01:53;;;;;;;17.35;9.63;;;;;;;2.31;65.68;99263.99;1688963;84;21095;-58
2022/01/17 08:04:19;;;;;;;19.40;10.18;;;;;;;2.36;65.53;99250.73;1685219;84;21156;-59
2022/01/17 08:06:46;;;;;;;17.87;9.90;;;;;;;2.36;65.52;99213.91;1688184;82;21721;-58
2022/01/17 08:09:29;;;;;;;20.37;9.95;;;;;;;2.40;65.54;99206.75;1684772;83;22508;-59
2022/01/17 08:11:54;;;;;;;18.77;10.25;;;;;;;2.39;65.52;99187.75;1665627;84;21040;-58
2022/01/17 08:14:24;;;;;;;17.87;9.45;;;;;;;2.38;65.58;99172.27;1684131;83;21839;-58
2022/01/17 08:16:51;;;;;;;16.52;8.83;;;;;;;2.39;65.60;99190.34;1686766;83;21121;-59
2022/01/17 08:19:18;;;;;;;18.87;8.93;;;;;;;2.44;65.63;99180.11;1684049;83;21114;-59
2022/01/17 08:21:47;;;;;;;18.75;10.72;;;;;;;2.39;65.59;99164.38;1657180;83;21067;-57
2022/01/17 08:24:13;;;;;;;17.45;9.55;;;;;;;2.41;65.68;99139.63;1687602;83;21050;-57
2022/01/17 08:26:43;;;;;;;14.75;8.85;;;;;;;2.39;65.84;99147.52;1662735;84;21086;-59
2022/01/17 08:29:09;;;;;;;15.48;9.20;;;;;;;2.44;65.83;99137.27;1696578;82;21099;-58
2022/01/17 08:31:35;;;;;;;18.57;10.78;;;;;;;2.49;65.73;99142.99;1700210;82;21934;-59
2022/01/17 08:34:02;;;;;;;19.02;9.83;;;;;;;2.51;65.66;99142.45;1698497;82;21049;-59
2022/01/17 08:36:28;;;;;;;20.08;10.13;;;;;;;2.57;65.65;99156.30;1679443;83;21599;-59
2022/01/17 08:38:55;;;;;;;14.95;8.88;;;;;;;2.66;65.36;99129.73;1696255;83;21153;-59
2022/01/17 08:41:21;;;;;;;17.35;9.43;;;;;;;2.76;65.21;99126.88;1699801;82;21058;-61
2022/01/17 08:43:48;;;;;;;20.35;9.63;;;;;;;2.78;65.14;99123.70;1697566;82;21322;-59
2022/01/17 08:46:15;;;;;;;16.45;9.83;;;;;;;2.78;64.86;99148.37;1697708;82;21102;-59
2022/01/17 08:48:42;;;;;;;16.23;9.25;;;;;;;2.78;64.84;99123.70;1694390;83;21064;-59
2022/01/17 08:51:08;;;;;;;27.50;10.28;;;;;;;2.79;64.79;99120.62;1692183;83;21102;-57
2022/01/17 08:53:35;;;;;;;20.30;8.35;;;;;;;2.79;64.81;99118.88;1690357;82;21118;-59
2022/01/17 08:56:03;;;;;;;14.93;9.13;;;;;;;2.79;64.65;99103.28;1693007;83;21407;-59
2022/01/17 08:58:30;;;;;;;15.48;9.23;;;;;;;2.82;64.77;99105.30;1669075;84;21137;-58
2022/01/17 09:00:57;;;;;;;18.40;10.03;;;;;;;2.88;64.70;99111.39;1671994;83;21325;-59
2022/01/17 09:03:24;;;;;;;19.00;9.75;;;;;;;2.83;64.41;99115.59;1696480;83;20991;-60
2022/01/17 09:05:51;;;;;;;14.85;8.78;;;;;;;2.91;64.50;99118.50;1698667;83;21639;-57
2022/01/17 09:08:18;;;;;;;14.35;9.10;;;;;;;2.94;64.13;99099.26;1665198;82;21172;-58
2022/01/17 09:10:46;;;;;;;18.70;9.15;;;;;;;2.95;64.02;99092.66;1658195;84;21114;-58
2022/01/17 09:13:12;;;;;;;15.72;9.00;;;;;;;2.93;63.95;99089.82;1668915;83;21007;-57
2022/01/17 09:17:24;;;;;;;17.92;9.23;;;;;;;2.92;64.08;99051.77;1779646;78;23232;-58
2022/01/17 09:22:29;;;;;;;14.18;8.15;;;;;;;2.88;64.12;99054.23;1812577;76;22015;-59
2022/01/17 09:24:56;;;;;;;14.70;8.60;;;;;;;2.84;64.22;99059.27;1786329;78;21052;-58
2022/01/17 09:27:22;;;;;;;14.30;8.60;;;;;;;2.83;64.04;99061.52;1754533;79;21190;-58
2022/01/17 09:29:49;;;;;;;16.07;9.13;;;;;;;2.85;64.06;99063.53;1793319;79;20958;-58
2022/01/17 09:32:15;;;;;;;15.80;8.70;;;;;;;2.87;64.09;99069.45;1748484;80;21537;-58
2022/01/17 09:34:43;;;;;;;19.32;8.25;;;;;;;2.91;63.84;99044.93;1778881;78;21059;-57
2022/01/17 09:37:10;;;;;;;13.25;8.28;;;;;;;2.93;63.58;99039.16;1777786;78;22099;-57
2022/01/17 09:39:38;;;;;;;15.15;9.03;;;;;;;2.94;63.55;99022.61;1786083;78;21524;-56
2022/01/17 09:42:06;;;;;;;16.62;10.05;;;;;;;2.95;63.45;99015.19;1778937;78;20978;-57
2022/01/17 09:44:34;;;;;;;13.60;7.97;;;;;;;3.00;63.49;99014.39;1786987;78;21105;-58
2022/01/17 09:47:06;;;;;;;14.65;8.08;;;;;;;3.01;63.43;98993.97;1744721;80;21522;-58
2022/01/17 09:49:42;;;;;;;13.80;9.23;;;;;;;3.03;63.44;98978.27;1783834;78;21089;-58
2022/01/17 09:54:55;;;;;;;13.53;8.25;;;;;;;3.08;63.09;98974.39;1784737;78;21049;-59
2022/01/17 09:57:22;;;;;;;13.88;8.33;;;;;;;3.10;62.91;98970.39;1753469;79;21416;-59
2022/01/17 09:59:49;;;;;;;15.00;8.45;;;;;;;3.08;63.00;98962.70;1785334;78;21076;-58
2022/01/17 10:02:17;;;;;;;17.57;8.93;;;;;;;3.08;63.00;98961.88;1747226;78;21073;-58
2022/01/17 10:04:43;;;;;;;22.32;8.65;;;;;;;3.09;63.03;98949.23;1777541;78;21058;-57
2022/01/17 10:07:09;;;;;;;12.95;7.58;;;;;;;3.11;63.00;98946.89;1784257;78;21686;-57
2022/01/17 10:09:36;;;;;;;14.13;7.20;;;;;;;3.10;62.91;98941.80;1748841;80;21122;-57
2022/01/17 10:12:10;;;;;;;13.03;7.20;;;;;;;3.15;62.91;98939.70;1744371;78;21070;-58
2022/01/17 10:14:41;;;;;;;13.25;8.15;;;;;;;3.24;62.78;98944.69;1783042;78;20998;-58
2022/01/17 10:17:15;;;;;;;11.28;6.97;;;;;;;3.30;62.55;98946.86;1784954;79;21154;-59
2022/01/17 10:19:42;;;;;;;14.83;8.50;;;;;;;3.30;62.50;98926.06;1782084;78;22156;-58
2022/01/17 10:22:19;;;;;;;16.67;8.25;;;;;;;3.31;62.53;98950.64;1747735;80;21113;-58
2022/01/17 10:24:52;;;;;;;14.20;7.62;;;;;;;3.30;62.67;98934.67;1694630;81;21502;-58
2022/01/17 10:35:18;;;;;;;17.00;9.13;;;;;;;3.25;62.67;98926.87;1692125;81;21063;-57
2022/01/17 10:38:01;;;;;;;16.32;8.30;;;;;;;3.23;62.79;98913.98;1725600;81;21077;-57
2022/01/17 10:40:34;;;;;;;12.18;8.08;;;;;;;3.26;62.68;98924.61;1734294;81;21644;-58
2022/01/17 10:43:02;;;;;;;13.35;8.45;;;;;;;3.21;62.66;98892.47;1726973;81;21057;-58
2022/01/17 10:45:33;;;;;;;11.90;7.45;;;;;;;3.27;62.74;98886.80;1733874;80;21584;-58
2022/01/17 10:48:00;;;;;;;12.60;7.42;;;;;;;3.27;62.68;98869.08;1719064;80;21168;-58
2022/01/17 10:50:33;;;;;;;15.03;8.50;;;;;;;3.28;62.54;98865.55;1747741;80;22038;-58
2022/01/17 10:53:02;;;;;;;12.03;7.35;;;;;;;3.28;62.56;98848.17;1745788;80;21047;-57
2022/01/17 10:55:35;;;;;;;12.63;7.70;;;;;;;3.28;62.60;98829.98;1748757;80;21225;-58
2022/01/17 10:58:09;;;;;;;13.80;7.40;;;;;;;3.32;62.53;98837.07;1746694;80;21129;-57
2022/01/17 11:00:40;;;;;;;12.70;6.37;;;;;;;3.36;62.37;98820.28;1709941;81;21564;-58
2022/01/17 11:03:08;;;;;;;14.60;7.67;;;;;;;3.38;62.20;98834.47;1718770;81;21106;-57
2022/01/17 11:05:41;;;;;;;12.78;7.08;;;;;;;3.37;62.24;98808.95;1727270;81;21027;-58
2022/01/17 11:08:08;;;;;;;13.35;7.78;;;;;;;3.32;62.04;98813.19;1722658;81;21178;-57
2022/01/17 11:10:39;;;;;;;12.35;7.37;;;;;;;3.37;62.04;98819.35;1748004;80;21502;-60
2022/01/17 11:13:09;;;;;;;14.95;7.80;;;;;;;3.37;62.15;98809.44;1721065;81;21086;-58
2022/01/17 11:15:36;;;;;;;13.18;6.85;;;;;;;3.37;61.95;98797.73;1721485;81;21676;-59
2022/01/17 11:18:16;;;;;;;14.95;7.30;;;;;;;3.38;61.93;98808.02;1749251;80;21034;-59
2022/01/17 11:20:38;;;;;;;12.70;8.13;;;;;;;3.41;61.84;98791.34;1749681;80;21411;-60
2022/01/17 11:23:05;;;;;;;10.93;6.67;;;;;;;3.38;61.87;98785.92;1712418;81;21097;-58
2022/01/17 11:25:36;;;;;;;11.40;6.67;;;;;;;3.41;61.89;98783.55;1715342;81;21074;-58
2022/01/17 11:28:05;;;;;;;15.00;6.53;;;;;;;3.41;61.66;98787.44;1694043;82;21080;-58
2022/01/17 11:30:34;;;;;;;9.73;6.00;;;;;;;3.40;61.73;98777.53;1718320;81;21053;-59
2022/01/17 11:33:03;;;;;;;13.10;6.20;;;;;;;3.43;61.61;98768.20;1714518;82;22280;-59
2022/01/17 11:35:31;;;;;;;14.05;7.95;;;;;;;3.45;61.47;98752.00;1711252;83;21053;-58
2022/01/17 11:37:59;;;;;;;13.60;7.15;;;;;;;3.47;61.38;98768.30;1713161;81;21128;-58
2022/01/17 11:40:37;;;;;;;13.95;6.62;;;;;;;3.49;61.21;98749.98;1713829;81;21138;-59
2022/01/17 11:43:33;;;;;;;14.00;6.42;;;;;;;3.47;61.21;98755.30;1702391;82;21759;-59
2022/01/17 11:45:56;;;;;;;13.03;7.05;;;;;;;3.50;61.20;98751.66;1674692;84;21175;-59
2022/01/17 11:48:30;;;;;;;9.45;5.75;;;;;;;3.53;61.21;98748.79;1687411;81;21370;-57
2022/01/17 11:51:13;;;;;;;10.82;6.50;;;;;;;3.58;61.16;98746.69;1687180;83;21176;-57
2022/01/17 11:53:48;;;;;;;11.33;5.42;;;;;;;3.59;60.96;98731.42;1684338;83;21098;-58
2022/01/17 11:56:20;;;;;;;10.05;6.10;;;;;;;3.61;61.00;98724.80;1663693;83;21063;-57
2022/01/17 11:58:47;;;;;;;16.77;6.30;;;;;;;3.61;60.96;98710.50;1688090;83;21160;-57
2022/01/17 12:01:18;;;;;;;13.18;6.40;;;;;;;3.62;60.98;98723.39;1664086;83;21042;-57
2022/01/17 12:03:56;;;;;;;12.07;7.08;;;;;;;3.61;60.91;98703.52;1692210;83;22308;-58